»·PEaware :: N851TB KBFL-KMHV

N851TB :: KBFL-KMHV

FLIGHT INFORMATION

Flight Status: Arrived
Operator: Privately registered:
United States
More flights under this callsign
Pilot: Jose Enrique G. (41620)
Aircraft: CESSNA 152 AEROBAT
(C152)
More flights by this aircraft type
Origin: KBFL Meadows
United States
Destination: KMHV Mojave
United States
More flights between these airports :: More routes between these airports
Route:
File this flight plan on PilotEdge
Remarks:
Altitude:
(Current/Filed)
7,500ft
Speed:
(Current/Filed)
100kts
Departed: 28-Sep-22 08:10 PM
Arrived: 28-Sep-22 08:49 PM
Distance/Time
Traveled:
50nm/0:39
Distance/Time
To Go:
Arrived

Flight Plot

Page will automatically refresh every two minutes.


Map Options




Map Legend


Flown Route
Filed Route
Departure Airport
Arrival Airport
Navaid (VOR, NDB)
Fix

Horizontal Profiles

Position Reports

Time Latitude Longitude Heading Altitude Ground
Speed
28-Sep-22 19:56 35.432211 -119.050336 226 484ft 0kts
28-Sep-22 19:57 35.432211 -119.050336 226 484ft 0kts
28-Sep-22 19:58 35.432211 -119.050336 226 484ft 0kts
28-Sep-22 19:59 35.432211 -119.050336 226 484ft 0kts
28-Sep-22 20:00 35.432211 -119.050336 226 484ft 0kts
28-Sep-22 20:01 35.432211 -119.050336 226 484ft 0kts
28-Sep-22 20:02 35.432211 -119.050336 226 484ft 0kts
28-Sep-22 20:03 35.432211 -119.050336 226 484ft 0kts
28-Sep-22 20:04 35.432211 -119.050336 226 484ft 0kts
28-Sep-22 20:05 35.432001 -119.050235 139 483ft 8kts
28-Sep-22 20:06 35.428504 -119.047481 135 479ft 19kts
28-Sep-22 20:07 35.425733 -119.044758 229 471ft 0kts
28-Sep-22 20:08 35.425733 -119.044758 229 471ft 0kts
28-Sep-22 20:09 35.426601 -119.047504 316 477ft 43kts
28-Sep-22 20:10 35.441259 -119.045541 46 1181ft 66kts
28-Sep-22 20:11 35.431989 -119.027493 139 2012ft 59kts
28-Sep-22 20:12 35.419028 -119.014936 143 2749ft 58kts
28-Sep-22 20:13 35.408048 -118.999515 114 3419ft 56kts
28-Sep-22 20:14 35.406657 -118.993162 102 3631ft 56kts
28-Sep-22 20:15 35.403543 -118.975663 114 4186ft 51kts
28-Sep-22 20:16 35.395052 -118.961552 133 4645ft 51kts
28-Sep-22 20:17 35.385823 -118.947806 118 5081ft 56kts
28-Sep-22 20:18 35.383471 -118.928561 99 5613ft 55kts
28-Sep-22 20:19 35.377506 -118.910153 120 6098ft 58kts
28-Sep-22 20:20 35.370874 -118.892158 109 6557ft 57kts
28-Sep-22 20:21 35.364274 -118.874491 127 6955ft 56kts
28-Sep-22 20:22 35.351778 -118.861695 136 7319ft 56kts
28-Sep-22 20:23 35.342590 -118.845928 113 7591ft 58kts
28-Sep-22 20:24 35.332154 -118.822016 123 7570ft 105kts
28-Sep-22 20:25 35.316622 -118.792622 121 7603ft 102kts
28-Sep-22 20:26 35.302005 -118.762546 120 7650ft 102kts
28-Sep-22 20:27 35.285183 -118.732910 116 7527ft 109kts
28-Sep-22 20:28 35.270816 -118.700196 125 7400ft 109kts
28-Sep-22 20:29 35.254812 -118.669238 120 7322ft 105kts
28-Sep-22 20:30 35.241199 -118.638977 118 7391ft 98kts
28-Sep-22 20:31 35.229487 -118.607980 113 7404ft 104kts
28-Sep-22 20:32 35.217759 -118.575581 118 7404ft 104kts
28-Sep-22 20:33 35.205490 -118.543819 117 7438ft 104kts
28-Sep-22 20:34 35.193625 -118.511558 116 7457ft 104kts
28-Sep-22 20:35 35.180000 -118.480374 116 7470ft 103kts
28-Sep-22 20:36 35.166943 -118.448858 118 7493ft 101kts
28-Sep-22 20:37 35.151687 -118.419572 115 7538ft 98kts
28-Sep-22 20:38 35.137946 -118.389177 125 7496ft 102kts
28-Sep-22 20:39 35.119878 -118.362812 135 7488ft 103kts
28-Sep-22 20:40 35.103225 -118.333985 124 7338ft 111kts
28-Sep-22 20:41 35.083998 -118.300520 121 6351ft 128kts
28-Sep-22 20:42 35.068711 -118.260441 108 4730ft 129kts
28-Sep-22 20:43 35.065109 -118.221875 94 3890ft 92kts
28-Sep-22 20:44 35.067511 -118.188617 81 3853ft 105kts
28-Sep-22 20:45 35.071379 -118.155121 82 3970ft 97kts
28-Sep-22 20:46 35.077183 -118.122725 103 4009ft 97kts
28-Sep-22 20:47 35.059062 -118.130693 264 3135ft 93kts
28-Sep-22 20:48 35.058420 -118.149708 140 2752ft 3kts
28-Sep-22 20:49 35.057066 -118.150290 211 2752ft 0kts

Navigation Log

Ident Type
Flight plan parsing failed, navigation log unavailable